Time;durP1;ratioP1;P1;durP2;ratioP2;P2;SDS_P1;SDS_P2;PMS_P1;PMS_P2;Temp;Humidity;BMP_temperature;BMP_pressure;BME280_temperature;BME280_humidity;BME280_pressure;Samples;Min_cycle;Max_cycle;Signal;HPM_P1;HPM_P2
2021/07/31 00:10:43;;;;;;;;;;;;;;;;;;;;;
2021/07/31 02:54:41;;;;;;;2.93;2.03;;;17.80;99.90;;;;;;6123792;22;20405;-93
2021/07/31 05:57:39;;;;;;;3.65;3.00;;;17.50;99.90;;;;;;6215874;22;22472;31
2021/07/31 07:54:24;;;;;;;3.20;2.17;;;19.60;99.90;;;;;;6228929;22;20440;-83
2021/07/31 07:56:50;;;;;;;3.20;2.13;;;19.50;99.90;;;;;;6236246;22;20396;-83
2021/07/31 07:59:24;;;;;;;3.60;2.50;;;19.60;99.90;;;;;;6236647;22;20173;-84
2021/07/31 08:01:56;;;;;;;6.77;2.17;;;19.90;99.90;;;;;;6236767;22;20158;-85
2021/07/31 08:04:47;;;;;;;4.60;2.50;;;20.00;99.70;;;;;;6263284;22;20405;-84
2021/07/31 08:07:48;;;;;;;;;;;;;;;;;;;;;
2021/07/31 08:34:22;;;;;;;2.50;1.83;;;19.70;98.70;;;;;;6267832;22;20419;-96
2021/07/31 08:37:41;;;;;;;2.73;1.93;;;19.70;98.60;;;;;;6240526;22;20400;-95
2021/07/31 08:58:54;;;;;;;3.93;2.10;;;20.20;98.20;;;;;;6245394;22;20513;-96
2021/07/31 09:01:44;;;;;;;;;;;;;;;;;;;;;
2021/07/31 09:04:39;;;;;;;4.13;1.80;;;20.30;98.10;;;;;;6258380;22;20483;-93
2021/07/31 09:20:26;;;;;;;5.87;2.10;;;20.50;97.10;;;;;;6265218;22;20470;-96
2021/07/31 09:22:57;;;;;;;3.03;1.73;;;20.80;96.80;;;;;;6258395;22;20445;-95
2021/07/31 09:25:36;;;;;;;;;;;;;;;;;;;;;
2021/07/31 09:36:11;;;;;;;3.50;2.00;;;22.50;95.60;;;;;;6262556;22;20432;-93
2021/07/31 09:38:48;;;;;;;4.83;1.73;;;22.10;95.00;;;;;;6230188;23;20437;-92
2021/07/31 10:39:24;;;;;;;3.27;1.57;;;23.00;86.30;;;;;;6235712;22;20466;-88
2021/07/31 11:01:31;;;;;;;1.40;1.30;;;23.30;85.20;;;;;;6231430;23;20473;-86
2021/07/31 11:09:13;;;;;;;1.83;1.10;;;24.10;80.70;;;;;;6255024;22;20455;-84
2021/07/31 11:11:39;;;;;;;1.47;1.37;;;23.70;81.80;;;;;;6261992;22;20447;-82
2021/07/31 11:14:07;;;;;;;1.10;1.00;;;23.80;79.90;;;;;;6235395;22;20401;-84
2021/07/31 11:16:35;;;;;;;2.77;1.30;;;23.90;78.80;;;;;;6263618;22;20165;-84
2021/07/31 11:19:02;;;;;;;2.50;1.43;;;24.10;78.50;;;;;;6260063;22;20397;-82
2021/07/31 11:21:56;;;;;;;2.30;1.47;;;24.50;76.70;;;;;;6237304;22;20528;-82
2021/07/31 11:37:08;;;;;;;1.63;1.30;;;23.90;80.60;;;;;;6262451;22;20384;-83
2021/07/31 11:42:05;;;;;;;2.70;1.30;;;24.40;74.50;;;;;;6260356;22;20464;-84
2021/07/31 11:44:36;;;;;;;2.07;1.20;;;24.30;73.60;;;;;;6235401;22;20664;-82
2021/07/31 11:47:03;;;;;;;2.53;1.43;;;23.90;75.10;;;;;;6236026;22;20467;-83
2021/07/31 11:49:35;;;;;;;1.90;1.47;;;23.80;75.00;;;;;;6262178;22;20469;-84
2021/07/31 11:52:11;;;;;;;2.40;1.60;;;23.80;75.20;;;;;;6235906;22;20407;-86
2021/07/31 11:55:13;;;;;;;;;;;;;;;;;;;;;
2021/07/31 11:57:45;;;;;;;1.30;1.20;;;24.30;73.60;;;;;;6258261;22;20480;-85
2021/07/31 12:01:11;;;;;;;2.80;1.27;;;24.30;72.00;;;;;;6235327;22;20393;-85
2021/07/31 12:04:20;;;;;;;1.97;1.60;;;24.30;72.30;;;;;;6234346;22;20404;-85
2021/07/31 12:07:19;;;;;;;2.40;1.77;;;24.60;73.30;;;;;;6233927;22;20440;-85
2021/07/31 12:10:26;;;;;;;;;;;;;;;;;;;;;
2021/07/31 12:16:44;;;;;;;1.73;1.60;;;24.50;71.90;;;;;;6260545;22;20392;-85
2021/07/31 12:20:01;;;;;;;2.60;1.60;;;24.60;71.60;;;;;;6230831;22;20389;-87
2021/07/31 12:23:06;;;;;;;1.67;1.47;;;25.30;72.10;;;;;;6236544;22;20403;-84
2021/07/31 12:44:38;;;;;;;2.23;1.30;;;25.20;68.30;;;;;;6217094;22;20485;-89
2021/07/31 12:47:30;;;;;;;1.80;1.30;;;25.20;69.40;;;;;;6236629;22;20757;-89
2021/07/31 12:50:06;;;;;;;2.27;1.33;;;25.40;68.80;;;;;;6244813;22;20960;-87
2021/07/31 12:52:47;;;;;;;4.13;1.50;;;25.20;66.90;;;;;;6234667;22;20444;-88
2021/07/31 13:01:15;;;;;;;1.80;1.53;;;26.00;65.30;;;;;;6260464;22;20471;-89
2021/07/31 13:03:47;;;;;;;1.30;1.20;;;25.90;66.00;;;;;;6237788;22;20780;-89
2021/07/31 13:06:18;;;;;;;3.70;1.70;;;25.90;66.90;;;;;;6238471;22;20456;-89
2021/07/31 13:08:49;;;;;;;3.90;1.47;;;25.70;66.80;;;;;;6237442;22;20408;-89
2021/07/31 13:11:27;;;;;;;4.40;1.77;;;25.50;68.20;;;;;;6237414;22;20576;-90
2021/07/31 13:13:55;;;;;;;3.10;1.77;;;25.60;65.00;;;;;;6234532;22;20428;-88
2021/07/31 13:16:23;;;;;;;2.37;1.63;;;25.70;65.60;;;;;;6239606;22;20396;-90
2021/07/31 13:18:53;;;;;;;2.37;1.90;;;25.20;65.80;;;;;;6236619;22;20407;-89
2021/07/31 13:25:08;;;;;;;1.90;1.70;;;25.10;66.10;;;;;;6237789;22;20452;-89
2021/07/31 13:27:55;;;;;;;1.73;1.63;;;25.10;63.80;;;;;;6235760;22;20471;-89
2021/07/31 13:30:27;;;;;;;3.30;1.73;;;25.20;66.00;;;;;;6175835;22;20397;-89
2021/07/31 13:33:03;;;;;;;3.93;1.53;;;25.70;64.30;;;;;;6237970;22;20429;-89
2021/07/31 13:35:43;;;;;;;3.13;1.40;;;25.70;62.50;;;;;;6237828;22;20400;-89
2021/07/31 13:41:43;;;;;;;3.93;1.50;;;27.50;60.80;;;;;;6233244;22;20491;-88
2021/07/31 13:44:24;;;;;;;1.70;1.60;;;27.30;58.40;;;;;;6249983;22;20431;-88
2021/07/31 13:46:50;;;;;;;2.30;1.40;;;26.30;62.10;;;;;;6246378;22;20986;-88
2021/07/31 13:49:21;;;;;;;1.63;1.53;;;25.20;62.60;;;;;;6240440;22;20393;-88
2021/07/31 13:51:59;;;;;;;;;;;;;;;;;;;;;
2021/07/31 13:54:38;;;;;;;1.47;1.37;;;24.70;65.10;;;;;;6275837;22;20412;-88
2021/07/31 13:57:07;;;;;;;1.50;1.40;;;25.10;66.10;;;;;;6249428;22;20389;-89
2021/07/31 13:59:37;;;;;;;2.20;1.30;;;25.40;63.40;;;;;;6243594;22;20385;-89
2021/07/31 14:05:54;;;;;;;1.57;1.47;;;26.40;67.00;;;;;;6265346;22;20381;-89
2021/07/31 14:08:20;;;;;;;1.50;1.40;;;29.70;62.00;;;;;;6237439;22;20483;-89
2021/07/31 14:10:48;;;;;;;1.80;1.40;;;33.40;55.00;;;;;;6237580;22;20913;-89
2021/07/31 14:13:14;;;;;;;3.00;1.60;;;35.00;50.00;;;;;;6236829;22;20602;-88
2021/07/31 14:15:43;;;;;;;2.53;1.57;;;35.30;46.90;;;;;;6239028;22;20477;-88
2021/07/31 14:18:14;;;;;;;1.33;1.20;;;36.60;46.50;;;;;;6238441;22;20158;-89
2021/07/31 14:20:52;;;;;;;2.47;1.40;;;37.60;41.20;;;;;;6240055;22;20384;-90
2021/07/31 14:23:20;;;;;;;2.00;1.53;;;37.70;42.00;;;;;;6239808;22;20158;-90
2021/07/31 14:25:46;;;;;;;2.73;1.73;;;34.70;41.40;;;;;;6239969;22;20803;-89
2021/07/31 14:28:14;;;;;;;2.20;1.67;;;33.50;43.30;;;;;;6237455;22;20463;-89
2021/07/31 14:30:40;;;;;;;2.23;1.60;;;30.60;47.20;;;;;;6239973;22;20233;-88
2021/07/31 14:33:06;;;;;;;1.90;1.50;;;27.80;50.50;;;;;;6240445;22;20879;-89
2021/07/31 14:35:31;;;;;;;4.10;1.80;;;26.40;53.30;;;;;;6239931;22;20166;-89
2021/07/31 14:37:57;;;;;;;2.40;1.60;;;26.60;54.00;;;;;;6240120;22;20624;-89
2021/07/31 14:40:24;;;;;;;1.63;1.53;;;26.90;54.60;;;;;;6266000;22;20243;-88
2021/07/31 14:45:39;;;;;;;3.53;1.73;;;25.70;57.80;;;;;;6268762;22;21291;-88
2021/07/31 14:48:14;;;;;;;1.90;1.77;;;24.90;58.00;;;;;;6239700;22;20420;-90
2021/07/31 14:50:41;;;;;;;2.13;1.87;;;24.50;58.90;;;;;;6239698;22;20419;-87
2021/07/31 14:53:09;;;;;;;1.90;1.57;;;24.20;61.10;;;;;;6239866;22;20409;-88
2021/07/31 14:55:45;;;;;;;1.40;1.30;;;24.10;60.20;;;;;;6248259;22;20400;-87
2021/07/31 14:58:13;;;;;;;2.97;2.00;;;24.00;62.00;;;;;;6266022;22;20389;-88
2021/07/31 15:00:40;;;;;;;1.67;1.57;;;24.10;63.80;;;;;;6239288;22;20408;-89
2021/07/31 15:03:05;;;;;;;2.80;1.30;;;24.40;65.50;;;;;;6239433;22;20384;-88
2021/07/31 15:05:31;;;;;;;1.70;1.60;;;24.70;65.40;;;;;;6238525;22;20392;-88
2021/07/31 15:07:57;;;;;;;2.30;1.57;;;25.10;64.70;;;;;;6240779;22;20265;-88
2021/07/31 15:10:22;;;;;;;2.17;2.03;;;25.40;62.70;;;;;;6238958;22;20181;-88
2021/07/31 15:12:48;;;;;;;3.77;1.80;;;24.80;64.70;;;;;;6238999;22;20679;-88
2021/07/31 15:15:48;;;;;;;3.57;1.87;;;24.40;66.20;;;;;;6241291;22;20177;-88
2021/07/31 15:18:14;;;;;;;3.60;2.07;;;24.50;67.80;;;;;;6264450;22;20162;-87
2021/07/31 15:20:40;;;;;;;3.10;2.40;;;24.90;68.60;;;;;;6267102;22;20412;-88
2021/07/31 15:23:06;;;;;;;2.30;1.37;;;25.20;68.70;;;;;;6265349;22;20400;-88
2021/07/31 15:25:32;;;;;;;2.10;1.90;;;25.40;65.60;;;;;;6267553;22;20182;-87
2021/07/31 15:27:57;;;;;;;2.00;1.57;;;25.70;67.30;;;;;;6264605;22;20500;-88
2021/07/31 15:30:24;;;;;;;2.23;1.70;;;25.50;62.80;;;;;;6240958;22;20603;-88
2021/07/31 15:32:50;;;;;;;4.63;2.10;;;26.30;64.80;;;;;;6238967;22;20170;-88
2021/07/31 15:35:16;;;;;;;3.07;2.10;;;28.20;66.00;;;;;;6238413;22;20454;-88
2021/07/31 15:37:42;;;;;;;2.57;1.70;;;30.30;58.30;;;;;;6240006;22;20396;-88
2021/07/31 15:40:08;;;;;;;2.40;1.70;;;31.40;56.00;;;;;;6238346;22;20158;-88
2021/07/31 15:42:34;;;;;;;1.83;1.50;;;34.20;49.40;;;;;;6239566;22;20170;-88
2021/07/31 15:45:03;;;;;;;2.63;2.00;;;34.00;47.70;;;;;;6239180;22;20484;-88
2021/07/31 15:47:29;;;;;;;2.50;1.67;;;36.00;49.10;;;;;;6238539;22;20198;-87
2021/07/31 15:49:55;;;;;;;1.80;1.57;;;37.60;42.70;;;;;;6238290;22;20718;-88
2021/07/31 15:52:20;;;;;;;1.83;1.73;;;39.40;39.40;;;;;;6239608;22;20296;-89
2021/07/31 15:54:46;;;;;;;2.47;1.70;;;40.40;37.10;;;;;;6238561;22;20456;-85
2021/07/31 15:57:11;;;;;;;2.15;1.55;;;40.50;36.80;;;;;;6236645;22;20166;-84
2021/07/31 15:59:38;;;;;;;3.53;1.87;;;40.70;36.50;;;;;;6235518;22;20165;-85
2021/07/31 16:02:04;;;;;;;2.97;2.07;;;37.80;36.90;;;;;;6238110;22;20165;-84
2021/07/31 16:04:29;;;;;;;2.53;1.80;;;34.90;41.30;;;;;;6262572;22;20407;-84
2021/07/31 16:06:55;;;;;;;2.57;2.10;;;32.20;44.10;;;;;;6236000;22;20168;-83
2021/07/31 16:09:20;;;;;;;2.57;2.00;;;29.90;49.30;;;;;;6236436;22;20162;-82
2021/07/31 16:11:46;;;;;;;1.93;1.83;;;28.40;51.00;;;;;;6237162;22;21881;-84
2021/07/31 16:14:12;;;;;;;4.50;2.50;;;27.70;55.10;;;;;;6236183;22;20173;-81
2021/07/31 16:16:38;;;;;;;3.50;2.13;;;28.00;53.90;;;;;;6236090;22;20193;-84
2021/07/31 16:19:03;;;;;;;3.70;2.30;;;28.10;54.30;;;;;;6237477;22;20591;-83
2021/07/31 16:21:30;;;;;;;2.37;2.17;;;28.20;54.30;;;;;;6234235;22;20389;-82
2021/07/31 16:23:57;;;;;;;3.27;2.23;;;27.40;56.30;;;;;;6236290;22;20182;-84
2021/07/31 16:26:24;;;;;;;5.00;2.30;;;27.40;56.70;;;;;;6236975;22;20690;-84
2021/07/31 16:28:50;;;;;;;2.83;2.37;;;30.50;52.80;;;;;;6235825;22;20769;-84
2021/07/31 16:31:16;;;;;;;3.20;1.47;;;33.90;48.60;;;;;;6238821;22;20388;-84
2021/07/31 16:33:42;;;;;;;3.43;3.13;;;36.00;43.30;;;;;;6261564;22;20158;-84
2021/07/31 16:36:08;;;;;;;3.13;1.90;;;36.70;43.20;;;;;;6237235;22;20439;-85
2021/07/31 16:38:35;;;;;;;1.60;1.50;;;37.80;41.00;;;;;;6240472;22;20479;-83
2021/07/31 16:41:01;;;;;;;4.97;2.30;;;35.30;41.00;;;;;;6260135;22;20404;-83
2021/07/31 16:43:27;;;;;;;1.90;1.60;;;34.80;41.40;;;;;;6233431;22;20388;-83
2021/07/31 16:45:53;;;;;;;4.57;2.03;;;36.10;40.50;;;;;;6235813;22;20415;-84
2021/07/31 16:48:36;;;;;;;1.90;1.60;;;36.80;39.80;;;;;;6236321;22;20210;-84
2021/07/31 16:51:01;;;;;;;2.23;1.87;;;35.90;40.30;;;;;;6236072;22;20170;-81
2021/07/31 16:53:27;;;;;;;2.17;1.70;;;34.80;41.20;;;;;;6233999;22;20449;-79
2021/07/31 16:55:53;;;;;;;2.67;1.83;;;32.70;43.10;;;;;;6237148;22;20248;-79
2021/07/31 16:58:18;;;;;;;3.20;2.30;;;32.30;44.70;;;;;;6234433;22;20253;-78
2021/07/31 17:00:44;;;;;;;3.93;2.00;;;30.80;47.90;;;;;;6232799;22;20292;-78
2021/07/31 17:03:11;;;;;;;4.00;1.90;;;29.60;50.20;;;;;;6235233;22;20158;-79
2021/07/31 17:05:37;;;;;;;2.80;1.90;;;28.10;53.10;;;;;;6233752;22;20547;-80
2021/07/31 17:08:03;;;;;;;2.40;1.80;;;27.40;55.50;;;;;;6234278;22;20991;-80
2021/07/31 17:10:29;;;;;;;2.60;1.90;;;26.90;56.50;;;;;;6236014;22;20388;-79
2021/07/31 17:12:54;;;;;;;4.90;2.57;;;26.60;56.20;;;;;;6260776;22;20221;-79
2021/07/31 17:15:20;;;;;;;2.30;1.60;;;27.70;57.50;;;;;;6260770;22;20161;-79
2021/07/31 17:17:46;;;;;;;2.10;1.90;;;30.10;53.50;;;;;;6261911;22;20174;-79
2021/07/31 17:20:12;;;;;;;3.83;2.27;;;31.90;51.00;;;;;;6262599;22;20181;-79
2021/07/31 17:22:38;;;;;;;2.67;2.47;;;31.00;49.60;;;;;;6235546;22;20163;-79
2021/07/31 17:25:04;;;;;;;2.90;2.30;;;29.70;51.40;;;;;;6258907;22;21061;-79
2021/07/31 17:27:30;;;;;;;5.27;3.90;;;28.00;54.00;;;;;;6254551;22;20198;-79
2021/07/31 17:29:56;;;;;;;2.83;2.63;;;25.80;56.90;;;;;;6232462;22;20519;-81
2021/07/31 17:32:21;;;;;;;4.07;3.27;;;26.10;59.10;;;;;;6231377;22;20166;-80
2021/07/31 17:34:47;;;;;;;2.90;2.63;;;27.90;56.80;;;;;;6235102;22;20190;-81
2021/07/31 17:37:14;;;;;;;2.27;2.10;;;28.70;55.10;;;;;;6260681;22;20244;-81
2021/07/31 17:39:42;;;;;;;5.10;2.40;;;30.00;52.70;;;;;;6236577;22;20158;-81
2021/07/31 17:42:07;;;;;;;4.03;3.00;;;29.00;52.20;;;;;;6231769;22;20401;-81
2021/07/31 17:44:33;;;;;;;4.27;2.67;;;26.70;56.40;;;;;;6259391;22;20440;-80
2021/07/31 17:46:59;;;;;;;3.50;2.17;;;25.40;59.20;;;;;;6233160;22;20198;-80
2021/07/31 17:49:24;;;;;;;2.80;2.40;;;24.20;62.80;;;;;;6233889;22;20241;-81
2021/07/31 17:51:50;;;;;;;2.60;2.33;;;23.60;65.60;;;;;;6262753;22;20165;-82
2021/07/31 17:54:15;;;;;;;2.53;2.33;;;23.30;66.60;;;;;;6236794;22;20619;-81
2021/07/31 17:56:41;;;;;;;2.30;2.10;;;22.90;67.60;;;;;;6236762;22;20276;-81
2021/07/31 17:59:07;;;;;;;4.53;2.33;;;22.50;68.10;;;;;;6235800;22;20184;-81
2021/07/31 18:01:33;;;;;;;3.10;2.43;;;22.40;68.40;;;;;;6237004;22;20166;-81
2021/07/31 18:03:58;;;;;;;3.40;2.20;;;22.10;69.10;;;;;;6239574;22;20577;-81
2021/07/31 18:06:24;;;;;;;2.33;2.07;;;21.90;70.60;;;;;;6262358;22;20440;-81
2021/07/31 18:08:49;;;;;;;2.30;2.10;;;21.90;70.90;;;;;;6265548;22;20510;-81
2021/07/31 18:11:15;;;;;;;2.83;2.10;;;21.70;71.90;;;;;;6238228;22;20173;-80
2021/07/31 18:13:42;;;;;;;3.03;2.73;;;21.50;73.70;;;;;;6237048;22;20257;-80
2021/07/31 18:16:08;;;;;;;2.20;2.10;;;21.50;75.30;;;;;;6235872;22;20170;-80
2021/07/31 18:18:33;;;;;;;3.87;2.70;;;21.40;75.80;;;;;;6236246;22;20928;-82
2021/07/31 18:20:59;;;;;;;3.37;2.00;;;21.30;76.20;;;;;;6232536;22;20406;-81
2021/07/31 18:23:24;;;;;;;4.50;2.50;;;21.20;76.80;;;;;;6236851;22;20167;-81
2021/07/31 18:25:50;;;;;;;4.27;2.43;;;21.20;78.20;;;;;;6238638;22;20181;-81
2021/07/31 18:28:16;;;;;;;4.00;2.87;;;21.20;77.70;;;;;;6238033;22;20549;-81
2021/07/31 18:30:41;;;;;;;5.13;2.10;;;21.20;79.60;;;;;;6230638;22;20169;-81
2021/07/31 18:33:07;;;;;;;3.13;2.50;;;21.10;79.70;;;;;;6236089;22;20670;-81
2021/07/31 18:35:33;;;;;;;6.30;3.10;;;21.10;78.90;;;;;;6236285;22;20621;-80
2021/07/31 18:37:58;;;;;;;4.93;2.80;;;21.00;80.90;;;;;;6237778;22;20245;-81
2021/07/31 18:40:24;;;;;;;4.30;2.43;;;20.90;81.50;;;;;;6236643;22;20548;-81
2021/07/31 18:42:50;;;;;;;4.63;2.90;;;20.90;82.40;;;;;;6237196;22;20170;-80
2021/07/31 18:45:15;;;;;;;4.53;2.63;;;20.80;83.80;;;;;;6237382;22;20624;-78
2021/07/31 18:47:41;;;;;;;3.90;2.50;;;20.90;83.30;;;;;;6261732;22;20664;-78
2021/07/31 18:50:10;;;;;;;3.20;2.90;;;20.90;84.50;;;;;;6261629;22;20176;-79
2021/07/31 18:52:36;;;;;;;4.30;3.07;;;21.00;83.60;;;;;;6237308;22;20241;-78
2021/07/31 18:55:02;;;;;;;3.77;2.87;;;20.90;84.70;;;;;;6238533;22;20925;-81
2021/07/31 18:57:28;;;;;;;3.33;2.90;;;20.70;85.30;;;;;;6239023;22;20391;-80
2021/07/31 18:59:54;;;;;;;4.40;3.20;;;20.60;86.00;;;;;;6237878;22;20739;-81
2021/07/31 19:02:19;;;;;;;2.90;2.50;;;20.50;86.00;;;;;;6236138;22;20249;-81
2021/07/31 19:04:45;;;;;;;4.03;3.57;;;20.40;86.80;;;;;;6235777;22;20166;-81
2021/07/31 19:07:11;;;;;;;6.10;3.00;;;20.30;86.90;;;;;;6235429;22;20583;-79
2021/07/31 19:09:36;;;;;;;6.57;2.80;;;20.30;87.00;;;;;;6261632;22;20203;-79
2021/07/31 19:12:04;;;;;;;3.53;3.03;;;20.20;88.10;;;;;;6263127;22;20170;-79
2021/07/31 19:14:30;;;;;;;3.03;2.77;;;20.10;90.10;;;;;;6234543;22;20191;-81
2021/07/31 19:16:56;;;;;;;3.67;3.10;;;20.00;90.20;;;;;;6235954;22;20733;-83
2021/07/31 19:19:22;;;;;;;4.10;3.17;;;19.90;90.50;;;;;;6237048;22;20393;-82
2021/07/31 19:21:47;;;;;;;3.57;2.83;;;19.90;91.70;;;;;;6237142;22;20552;-83
2021/07/31 19:24:13;;;;;;;3.50;3.17;;;19.80;92.80;;;;;;6234882;22;20247;-83
2021/07/31 19:26:39;;;;;;;4.33;2.70;;;19.60;93.30;;;;;;6237908;22;20182;-83
2021/07/31 19:29:05;;;;;;;5.17;2.70;;;19.50;94.10;;;;;;6230848;22;20173;-81
2021/07/31 19:31:31;;;;;;;3.17;2.80;;;19.40;95.00;;;;;;6263298;22;20162;-80
2021/07/31 19:33:56;;;;;;;6.00;3.77;;;19.30;96.00;;;;;;6234179;22;20403;-81
2021/07/31 19:36:23;;;;;;;6.10;4.30;;;19.10;96.40;;;;;;6238826;22;20174;-81
2021/07/31 19:38:49;;;;;;;6.53;4.07;;;19.10;96.70;;;;;;6236374;22;20505;-81
2021/07/31 19:41:15;;;;;;;7.40;4.17;;;19.00;97.50;;;;;;6237502;22;20397;-81
2021/07/31 19:43:40;;;;;;;6.77;3.63;;;18.80;97.90;;;;;;6236382;22;20474;-81
2021/07/31 19:46:06;;;;;;;5.20;3.40;;;18.60;98.40;;;;;;6237489;22;20514;-81
2021/07/31 19:48:32;;;;;;;4.30;3.10;;;18.50;98.80;;;;;;6237089;22;20573;-81
2021/07/31 19:50:57;;;;;;;8.07;3.90;;;18.60;99.00;;;;;;6237074;22;20207;-81
2021/07/31 19:53:23;;;;;;;5.40;3.97;;;18.70;98.10;;;;;;6235689;22;20166;-81
2021/07/31 19:55:50;;;;;;;4.13;3.60;;;18.70;98.30;;;;;;6236059;22;20233;-81
2021/07/31 19:58:16;;;;;;;5.37;4.03;;;18.60;98.70;;;;;;6236486;22;20186;-81
2021/07/31 20:00:42;;;;;;;5.43;3.80;;;18.60;99.00;;;;;;6237380;22;20404;-81
2021/07/31 20:03:07;;;;;;;6.27;3.80;;;18.60;99.80;;;;;;6237446;22;20396;-81
2021/07/31 20:05:33;;;;;;;7.37;4.17;;;18.50;99.90;;;;;;6262156;22;20174;-80
2021/07/31 20:07:59;;;;;;;5.10;4.60;;;18.40;99.90;;;;;;6236358;22;20198;-80
2021/07/31 20:10:25;;;;;;;6.97;4.90;;;18.40;99.90;;;;;;6235993;22;20427;-80
2021/07/31 20:12:52;;;;;;;7.53;4.40;;;18.30;99.90;;;;;;6263418;22;20154;-81
